CheckWX is a tool to help pilots better visualize weather data.  It is not intended as a substitute for an official pre-flight weather briefing.

15:56:58 UTC

KTEB TAF
Teterboro Airport
Teterboro, New Jersey, USA
KTEB 211530Z 2116/2218 35011KT P6SM SKC FM211800 32006KT P6SM SKC FM212100 28006KT P6SM SKC FM212300 23004KT P6SM SKC FM221400 26010G17KT P6SM SKC

Feb-21@
16:00 UTC

Feb-21 @ 16:00 UTC

Feb-21@
18:00 UTC

Feb-21 @ 18:00 UTC

KTEB 211530Z 2116/2218 35011KT P6SM SKC
Wind
  • 350° at 11 KTS
Cloud Levels
  • Clear skies

Feb-21@
18:00 UTC

Feb-21 @ 18:00 UTC

Feb-21@
21:00 UTC

Feb-21 @ 21:00 UTC

FM211800 32006KT P6SM SKC

From

From Standard forecast or significant change

Wind
  • 320° at 6 KTS
Cloud Levels
  • Clear skies

Feb-21@
21:00 UTC

Feb-21 @ 21:00 UTC

Feb-21@
23:00 UTC

Feb-21 @ 23:00 UTC

FM212100 28006KT P6SM SKC

From

From Standard forecast or significant change

Wind
  • 280° at 6 KTS
Cloud Levels
  • Clear skies

Feb-21@
23:00 UTC

Feb-21 @ 23:00 UTC

Feb-22@
14:00 UTC

Feb-22 @ 14:00 UTC

FM212300 23004KT P6SM SKC

From

From Standard forecast or significant change

Wind
  • 230° at 4 KTS
Cloud Levels
  • Clear skies

Feb-22@
14:00 UTC

Feb-22 @ 14:00 UTC

Feb-22@
18:00 UTC

Feb-22 @ 18:00 UTC

FM221400 26010G17KT P6SM SKC

From

From Standard forecast or significant change

Wind
  • 260° at 10 KTS
  • {Gusting to 17 KTS
Cloud Levels
  • Clear skies